createdAt,value
2018-04-22T00:00:42.191Z,121.30
2018-04-22T00:01:42.201Z,77.40
2018-04-22T00:02:42.203Z,86.30
2018-04-22T00:03:42.194Z,100.00
2018-04-22T00:04:42.198Z,73.10
2018-04-22T00:05:42.195Z,68.30
2018-04-22T00:06:43.187Z,86.90
2018-04-22T00:07:42.200Z,121.60
2018-04-22T00:08:42.210Z,117.20
2018-04-22T00:09:42.197Z,105.20
2018-04-22T00:10:42.201Z,224.40
2018-04-22T00:11:42.202Z,165.30
2018-04-22T00:12:42.201Z,113.30
2018-04-22T00:13:42.202Z,95.90
2018-04-22T00:14:42.205Z,116.00
2018-04-22T00:15:42.222Z,89.20
2018-04-22T00:16:42.207Z,103.80
2018-04-22T00:17:42.209Z,131.60
2018-04-22T00:18:42.209Z,80.30
2018-04-22T00:19:42.208Z,67.40
2018-04-22T00:20:42.209Z,67.00
2018-04-22T00:21:43.345Z,64.60
2018-04-22T00:22:42.210Z,67.70
2018-04-22T00:23:42.209Z,75.50
2018-04-22T00:24:42.209Z,111.60
2018-04-22T00:25:42.206Z,94.50
2018-04-22T00:26:42.214Z,77.60
2018-04-22T00:27:42.374Z,92.60
2018-04-22T00:28:42.214Z,101.70
2018-04-22T00:29:42.231Z,75.50
2018-04-22T00:30:42.685Z,158.10
2018-04-22T00:31:42.215Z,195.60
2018-04-22T00:32:42.212Z,71.50
2018-04-22T00:33:42.215Z,158.70
2018-04-22T00:34:42.240Z,111.80
2018-04-22T00:35:42.351Z,87.50
2018-04-22T00:36:42.226Z,76.80
2018-04-22T00:37:43.138Z,121.10
2018-04-22T00:38:43.074Z,126.90
2018-04-22T00:39:42.214Z,115.20
2018-04-22T00:40:42.572Z,142.10
2018-04-22T00:41:42.218Z,107.00
2018-04-22T00:42:42.223Z,90.60
2018-04-22T00:43:42.313Z,118.40
2018-04-22T00:44:42.478Z,110.10
2018-04-22T00:45:42.229Z,86.10
2018-04-22T00:46:42.217Z,111.30
2018-04-22T00:47:42.232Z,65.10
2018-04-22T00:48:42.219Z,91.60
2018-04-22T00:49:42.218Z,89.90
2018-04-22T00:50:42.220Z,92.40
2018-04-22T00:51:42.221Z,71.10
2018-04-22T00:52:42.220Z,139.50
2018-04-22T00:53:42.225Z,102.90
2018-04-22T00:54:42.249Z,87.10
2018-04-22T00:55:42.220Z,85.40
2018-04-22T00:56:44.159Z,101.50
2018-04-22T00:57:42.222Z,79.50
2018-04-22T00:58:42.225Z,83.00
2018-04-22T00:59:42.231Z,71.10
2018-04-22T01:00:42.224Z,113.30
2018-04-22T01:01:42.223Z,200.90
2018-04-22T01:02:42.224Z,88.00
2018-04-22T01:03:42.222Z,108.30
2018-04-22T01:04:42.223Z,84.10
2018-04-22T01:05:42.225Z,67.80
2018-04-22T01:06:42.244Z,81.30
2018-04-22T01:07:42.265Z,87.70
2018-04-22T01:08:42.228Z,80.80
2018-04-22T01:09:42.287Z,67.30
2018-04-22T01:10:42.316Z,67.60
2018-04-22T01:11:42.226Z,120.30
2018-04-22T01:12:42.228Z,82.70
2018-04-22T01:13:42.232Z,81.40
2018-04-22T01:14:42.228Z,322.60
2018-04-22T01:15:42.225Z,306.50
2018-04-22T01:16:42.230Z,147.20
2018-04-22T01:17:42.228Z,80.50
2018-04-22T01:18:42.263Z,67.00
2018-04-22T01:19:42.237Z,68.30
2018-04-22T01:20:42.238Z,68.60
2018-04-22T01:21:42.244Z,66.00
2018-04-22T01:22:42.227Z,72.10
2018-04-22T01:23:42.316Z,71.10
2018-04-22T01:24:42.240Z,103.30
2018-04-22T01:25:42.226Z,88.80
2018-04-22T01:26:42.232Z,67.00
2018-04-22T01:27:42.230Z,78.10
2018-04-22T01:28:42.238Z,87.60
2018-04-22T01:29:42.232Z,63.90
2018-04-22T01:30:42.228Z,65.70
2018-04-22T01:31:42.228Z,75.20
2018-04-22T01:32:42.232Z,64.90
2018-04-22T01:33:42.227Z,75.60
2018-04-22T01:34:42.228Z,74.00
2018-04-22T01:35:44.173Z,71.90
2018-04-22T01:36:42.233Z,169.10
2018-04-22T01:37:42.228Z,274.00
2018-04-22T01:38:42.475Z,184.20
2018-04-22T01:39:44.238Z,202.70
2018-04-22T01:40:42.260Z,192.20
2018-04-22T01:41:42.237Z,84.10
2018-04-22T01:42:42.558Z,66.10
2018-04-22T01:43:42.311Z,143.70
2018-04-22T01:44:42.232Z,141.10
2018-04-22T01:45:42.228Z,193.90
2018-04-22T01:46:42.228Z,77.70
2018-04-22T01:47:42.233Z,86.70
2018-04-22T01:48:42.231Z,166.70
2018-04-22T01:49:42.244Z,118.70
2018-04-22T01:50:42.232Z,103.80
2018-04-22T01:51:42.230Z,86.30
2018-04-22T01:52:42.229Z,179.70
2018-04-22T01:53:42.232Z,162.90
2018-04-22T01:54:42.237Z,92.30
2018-04-22T01:55:42.232Z,86.70
2018-04-22T01:56:42.230Z,82.40
2018-04-22T01:57:42.233Z,73.00
2018-04-22T01:58:42.233Z,67.70
2018-04-22T01:59:42.232Z,61.30
2018-04-22T02:00:42.235Z,65.70
2018-04-22T02:01:42.229Z,66.00
2018-04-22T02:02:42.228Z,76.70
2018-04-22T02:03:42.229Z,68.00
2018-04-22T02:04:42.229Z,74.20
2018-04-22T02:05:42.227Z,81.80
2018-04-22T02:06:42.226Z,81.20
2018-04-22T02:07:42.226Z,81.60
2018-04-22T02:08:42.790Z,66.80
2018-04-22T02:09:42.876Z,105.00
2018-04-22T02:10:42.225Z,101.00
2018-04-22T02:11:42.225Z,76.10
2018-04-22T02:12:42.229Z,68.40
2018-04-22T02:13:42.240Z,101.30
2018-04-22T02:14:44.174Z,95.50
2018-04-22T02:15:42.225Z,90.10
2018-04-22T02:16:42.224Z,96.20
2018-04-22T02:17:42.225Z,61.40
2018-04-22T02:18:45.171Z,62.30
2018-04-22T02:19:42.223Z,80.00
2018-04-22T02:20:42.223Z,59.10
2018-04-22T02:21:42.236Z,64.70
2018-04-22T02:22:42.222Z,56.50
2018-04-22T02:23:42.222Z,60.00
2018-04-22T02:24:42.223Z,56.30
2018-04-22T02:25:42.224Z,54.70
2018-04-22T02:26:42.221Z,57.70
2018-04-22T02:27:42.223Z,54.10
2018-04-22T02:28:42.221Z,61.20
2018-04-22T02:29:42.219Z,62.50
2018-04-22T02:30:42.220Z,58.00
2018-04-22T02:31:42.219Z,64.20
2018-04-22T02:32:42.220Z,63.60
2018-04-22T02:33:42.216Z,60.60
2018-04-22T02:34:42.234Z,62.50
2018-04-22T02:35:42.221Z,61.00
2018-04-22T02:36:42.241Z,61.70
2018-04-22T02:37:42.215Z,60.50
2018-04-22T02:38:42.216Z,57.80
2018-04-22T02:39:42.227Z,56.10
2018-04-22T02:40:42.218Z,60.00
2018-04-22T02:41:42.215Z,58.70
2018-04-22T02:42:42.211Z,62.00
2018-04-22T02:43:42.216Z,59.20
2018-04-22T02:44:42.215Z,57.10
2018-04-22T02:45:42.211Z,56.50
2018-04-22T02:46:42.210Z,59.80
2018-04-22T02:47:42.212Z,61.10
2018-04-22T02:48:42.208Z,93.90
2018-04-22T02:49:42.207Z,75.80
2018-04-22T02:50:42.207Z,62.50
2018-04-22T02:51:42.207Z,59.10
2018-04-22T02:52:42.207Z,59.60
2018-04-22T02:53:42.204Z,56.40
2018-04-22T02:54:42.209Z,53.10
2018-04-22T02:55:42.205Z,53.80
2018-04-22T02:56:42.205Z,53.80
2018-04-22T02:57:42.201Z,54.60
2018-04-22T02:58:42.201Z,59.40
2018-04-22T02:59:42.202Z,58.20
2018-04-22T03:00:42.201Z,59.50
2018-04-22T03:01:42.198Z,55.50
2018-04-22T03:02:42.198Z,55.80
2018-04-22T03:03:42.198Z,56.30
2018-04-22T03:04:42.198Z,56.90
2018-04-22T03:05:42.196Z,58.50
2018-04-22T03:06:42.195Z,58.20
2018-04-22T03:07:42.195Z,54.20
2018-04-22T03:08:42.197Z,51.40
2018-04-22T03:09:42.194Z,56.30
2018-04-22T03:10:42.196Z,55.10
2018-04-22T03:11:42.191Z,54.20
2018-04-22T03:12:42.190Z,57.50
2018-04-22T03:13:42.229Z,53.60
2018-04-22T03:14:42.191Z,56.50
2018-04-22T03:15:42.189Z,60.30
2018-04-22T03:16:42.191Z,58.50
2018-04-22T03:17:42.197Z,52.40
2018-04-22T03:18:42.188Z,55.40
2018-04-22T03:19:42.184Z,59.30
2018-04-22T03:20:42.196Z,60.30
2018-04-22T03:21:42.184Z,58.90
2018-04-22T03:22:42.188Z,63.10
2018-04-22T03:23:42.181Z,60.80
2018-04-22T03:24:42.181Z,52.90
2018-04-22T03:25:42.181Z,58.50
2018-04-22T03:26:42.178Z,58.60
2018-04-22T03:27:42.178Z,63.90
2018-04-22T03:28:42.178Z,56.60
2018-04-22T03:29:42.177Z,57.70
2018-04-22T03:30:42.174Z,57.00
2018-04-22T03:31:42.181Z,57.80
2018-04-22T03:32:42.173Z,56.80
2018-04-22T03:33:42.171Z,59.20
2018-04-22T03:34:42.173Z,55.20
2018-04-22T03:35:42.177Z,56.60
2018-04-22T03:36:42.170Z,54.00
2018-04-22T03:37:42.168Z,60.20
2018-04-22T03:38:42.173Z,61.10
2018-04-22T03:39:42.166Z,59.40
2018-04-22T03:40:42.167Z,58.50
2018-04-22T03:41:42.167Z,59.90
2018-04-22T03:42:42.178Z,60.10
2018-04-22T03:43:42.165Z,59.70
2018-04-22T03:44:42.163Z,59.10
2018-04-22T03:45:42.162Z,55.70
2018-04-22T03:46:42.163Z,57.70
2018-04-22T03:47:42.160Z,60.80
2018-04-22T03:48:42.162Z,58.50
2018-04-22T03:49:42.158Z,61.30
2018-04-22T03:50:42.159Z,61.70
2018-04-22T03:51:42.156Z,63.00
2018-04-22T03:52:42.156Z,62.10
2018-04-22T03:53:42.156Z,62.20
2018-04-22T03:54:42.153Z,59.60
2018-04-22T03:55:42.157Z,68.20
2018-04-22T03:56:42.151Z,62.60
2018-04-22T03:57:42.150Z,57.00
2018-04-22T03:58:42.157Z,59.30
2018-04-22T03:59:42.148Z,57.90
2018-04-22T04:00:42.153Z,65.70
2018-04-22T04:01:42.147Z,63.10
2018-04-22T04:02:42.147Z,62.80
2018-04-22T04:03:42.144Z,65.00
2018-04-22T04:04:42.144Z,58.00
2018-04-22T04:05:42.140Z,62.20
2018-04-22T04:06:42.140Z,60.00
2018-04-22T04:07:42.140Z,62.20
2018-04-22T04:08:42.137Z,61.10
2018-04-22T04:09:42.165Z,64.50
2018-04-22T04:10:42.134Z,61.40
2018-04-22T04:11:42.133Z,61.30
2018-04-22T04:12:42.567Z,63.10
2018-04-22T04:13:42.131Z,56.10
2018-04-22T04:14:42.129Z,60.10
2018-04-22T04:15:42.129Z,70.50
2018-04-22T04:16:42.130Z,57.00
2018-04-22T04:17:42.131Z,59.00
2018-04-22T04:18:42.137Z,55.60
2018-04-22T04:19:42.123Z,55.30
2018-04-22T04:20:42.122Z,62.40
2018-04-22T04:21:42.125Z,56.80
2018-04-22T04:22:42.119Z,55.40
2018-04-22T04:23:42.120Z,59.80
2018-04-22T04:24:42.117Z,59.10
2018-04-22T04:25:42.117Z,60.40
2018-04-22T04:26:42.115Z,63.60
2018-04-22T04:27:42.113Z,61.60
2018-04-22T04:28:42.114Z,59.10
2018-04-22T04:29:42.111Z,58.20
2018-04-22T04:30:42.314Z,57.30
2018-04-22T04:31:42.110Z,62.80
2018-04-22T04:32:42.629Z,58.00
2018-04-22T04:33:43.285Z,53.80
2018-04-22T04:34:42.105Z,58.90
2018-04-22T04:35:42.106Z,63.10
2018-04-22T04:36:42.105Z,56.90
2018-04-22T04:37:42.100Z,58.90
2018-04-22T04:38:42.099Z,59.20
2018-04-22T04:39:42.102Z,61.10
2018-04-22T04:40:42.104Z,59.00
2018-04-22T04:41:42.157Z,61.50
2018-04-22T04:42:42.094Z,57.00
2018-04-22T04:43:43.188Z,57.20
2018-04-22T04:44:42.671Z,56.80
2018-04-22T04:45:42.184Z,61.10
2018-04-22T04:46:43.145Z,59.10
2018-04-22T04:47:42.432Z,62.50
2018-04-22T04:48:42.097Z,56.50
2018-04-22T04:49:42.086Z,63.40
2018-04-22T04:50:42.111Z,63.90
2018-04-22T04:51:42.084Z,66.10
2018-04-22T04:52:42.082Z,62.60
2018-04-22T04:53:42.081Z,67.50
2018-04-22T04:54:42.084Z,68.50
2018-04-22T04:55:42.083Z,67.00
2018-04-22T04:56:42.083Z,72.20
2018-04-22T04:57:42.111Z,73.00
2018-04-22T04:58:42.144Z,68.40
2018-04-22T04:59:42.083Z,73.50
2018-04-22T05:00:42.088Z,75.20
2018-04-22T05:01:42.122Z,80.20
2018-04-22T05:02:42.118Z,82.70
2018-04-22T05:03:42.071Z,77.40
2018-04-22T05:04:42.091Z,77.60
2018-04-22T05:05:42.069Z,75.80
2018-04-22T05:06:42.089Z,73.20
2018-04-22T05:07:42.069Z,78.70
2018-04-22T05:08:42.113Z,75.80
2018-04-22T05:09:42.067Z,76.50
2018-04-22T05:10:42.073Z,78.10
2018-04-22T05:11:42.067Z,76.60
2018-04-22T05:12:42.063Z,79.40
2018-04-22T05:13:42.061Z,79.00
2018-04-22T05:14:42.065Z,82.00
2018-04-22T05:15:42.060Z,84.80
2018-04-22T05:16:42.059Z,81.60
2018-04-22T05:17:42.057Z,79.10
2018-04-22T05:18:42.110Z,82.30
2018-04-22T05:19:42.064Z,78.30
2018-04-22T05:20:42.057Z,85.20
2018-04-22T05:21:42.055Z,85.00
2018-04-22T05:22:42.055Z,83.70
2018-04-22T05:23:42.054Z,83.90
2018-04-22T05:24:42.053Z,91.00
2018-04-22T05:25:42.052Z,84.30
2018-04-22T05:26:42.053Z,80.10
2018-04-22T05:27:42.051Z,78.80
2018-04-22T05:28:42.052Z,80.00
2018-04-22T05:29:42.049Z,78.70
2018-04-22T05:30:42.050Z,81.90
2018-04-22T05:31:42.049Z,88.00
2018-04-22T05:32:42.050Z,85.30
2018-04-22T05:33:42.049Z,89.50
2018-04-22T05:34:42.049Z,88.60
2018-04-22T05:35:42.046Z,91.30
2018-04-22T05:36:42.045Z,86.40
2018-04-22T05:37:42.044Z,86.80
2018-04-22T05:38:42.044Z,87.10
2018-04-22T05:39:42.044Z,87.50
2018-04-22T05:40:42.049Z,88.40
2018-04-22T05:41:42.068Z,91.00
2018-04-22T05:42:42.092Z,88.80
2018-04-22T05:43:42.038Z,87.50
2018-04-22T05:44:42.043Z,86.30
2018-04-22T05:45:42.037Z,90.20
2018-04-22T05:46:42.036Z,79.40
2018-04-22T05:47:42.036Z,82.70
2018-04-22T05:48:42.057Z,83.00
2018-04-22T05:49:42.034Z,79.40
2018-04-22T05:50:42.033Z,81.70
2018-04-22T05:51:42.034Z,82.70
2018-04-22T05:52:42.033Z,75.90
2018-04-22T05:53:42.033Z,74.00
2018-04-22T05:54:42.033Z,69.30
2018-04-22T05:55:42.031Z,68.20
2018-04-22T05:56:42.029Z,69.90
2018-04-22T05:57:42.033Z,63.40
2018-04-22T05:58:42.030Z,65.90
2018-04-22T05:59:42.032Z,64.10
2018-04-22T06:00:42.030Z,63.20
2018-04-22T06:01:42.035Z,65.90
2018-04-22T06:02:42.035Z,65.90
2018-04-22T06:03:42.027Z,69.40
2018-04-22T06:04:42.025Z,68.20
2018-04-22T06:05:42.025Z,68.00
2018-04-22T06:06:42.023Z,65.10
2018-04-22T06:07:42.025Z,61.80
2018-04-22T06:08:42.023Z,59.00
2018-04-22T06:09:42.023Z,57.80
2018-04-22T06:10:42.022Z,62.30
2018-04-22T06:11:42.021Z,62.20
2018-04-22T06:12:42.022Z,64.00
2018-04-22T06:13:42.020Z,70.20
2018-04-22T06:14:42.020Z,66.90
2018-04-22T06:15:42.189Z,66.70
2018-04-22T06:16:42.021Z,62.30
2018-04-22T06:17:42.017Z,61.90
2018-04-22T06:18:42.017Z,63.50
2018-04-22T06:19:42.017Z,54.50
2018-04-22T06:20:42.020Z,58.90
2018-04-22T06:21:42.019Z,61.30
2018-04-22T06:22:42.018Z,57.50
2018-04-22T06:23:42.016Z,57.80
2018-04-22T06:24:42.016Z,55.90
2018-04-22T06:25:42.017Z,56.80
2018-04-22T06:26:42.016Z,60.60
2018-04-22T06:27:42.014Z,57.70
2018-04-22T06:28:42.017Z,55.80
2018-04-22T06:29:42.012Z,59.50
2018-04-22T06:30:42.013Z,63.80
2018-04-22T06:31:42.031Z,61.10
2018-04-22T06:32:42.012Z,60.90
2018-04-22T06:33:42.010Z,63.90
2018-04-22T06:34:42.152Z,65.10
2018-04-22T06:35:42.010Z,54.60
2018-04-22T06:36:42.013Z,59.30
2018-04-22T06:37:42.009Z,57.50
2018-04-22T06:38:42.009Z,57.30
2018-04-22T06:39:42.013Z,57.30
2018-04-22T06:40:42.012Z,56.10
2018-04-22T06:41:42.007Z,60.20
2018-04-22T06:42:42.012Z,57.20
2018-04-22T06:43:42.008Z,60.30
2018-04-22T06:44:42.032Z,58.50
2018-04-22T06:45:42.009Z,62.70
2018-04-22T06:46:42.592Z,57.10
2018-04-22T06:47:42.010Z,62.20
2018-04-22T06:48:42.008Z,60.00
2018-04-22T06:49:42.015Z,57.20
2018-04-22T06:50:42.008Z,58.60
2018-04-22T06:51:42.012Z,62.30
2018-04-22T06:52:42.008Z,59.70
2018-04-22T06:53:42.007Z,58.70
2018-04-22T06:54:42.007Z,60.80
2018-04-22T06:55:42.492Z,63.00
2018-04-22T06:56:42.008Z,60.20
2018-04-22T06:57:42.012Z,58.50
2018-04-22T06:58:42.039Z,63.70
2018-04-22T06:59:42.009Z,60.50
2018-04-22T07:00:42.008Z,60.20
2018-04-22T07:01:42.010Z,59.70
2018-04-22T07:02:42.008Z,59.90
2018-04-22T07:03:42.011Z,61.00
2018-04-22T07:04:42.013Z,60.00
2018-04-22T07:05:42.009Z,57.10
2018-04-22T07:06:42.012Z,58.30
2018-04-22T07:07:42.012Z,62.20
2018-04-22T07:08:42.013Z,58.40
2018-04-22T07:09:42.011Z,59.70
2018-04-22T07:10:42.015Z,58.30
2018-04-22T07:11:42.013Z,61.10
2018-04-22T07:12:42.023Z,59.60
2018-04-22T07:13:42.016Z,56.40
2018-04-22T07:14:42.013Z,57.40
2018-04-22T07:15:42.016Z,62.20
2018-04-22T07:16:42.038Z,57.30
2018-04-22T07:17:42.013Z,59.30
2018-04-22T07:18:42.015Z,56.50
2018-04-22T07:19:42.015Z,59.40
2018-04-22T07:20:42.017Z,58.30
2018-04-22T07:21:42.016Z,63.90
2018-04-22T07:22:42.091Z,56.10
2018-04-22T07:23:42.016Z,56.10
2018-04-22T07:24:42.020Z,57.80
2018-04-22T07:25:42.017Z,56.30
2018-04-22T07:26:42.017Z,55.60
2018-04-22T07:27:42.017Z,58.30
2018-04-22T07:28:42.018Z,57.60
2018-04-22T07:29:42.019Z,54.60
2018-04-22T07:30:42.018Z,55.40
2018-04-22T07:31:42.018Z,59.80
2018-04-22T07:32:42.021Z,53.00
2018-04-22T07:33:42.018Z,55.60
2018-04-22T07:34:42.019Z,54.10
2018-04-22T07:35:42.019Z,55.90
2018-04-22T07:36:42.020Z,56.20
2018-04-22T07:37:42.022Z,55.70
2018-04-22T07:38:42.022Z,51.30
2018-04-22T07:39:42.021Z,50.00
2018-04-22T07:40:42.053Z,62.90
2018-04-22T07:41:42.026Z,59.90
2018-04-22T07:42:42.022Z,59.00
2018-04-22T07:43:42.025Z,57.00
2018-04-22T07:44:42.025Z,52.80
2018-04-22T07:45:42.025Z,51.80
2018-04-22T07:46:42.023Z,55.70
2018-04-22T07:47:42.024Z,53.10
2018-04-22T07:48:42.026Z,56.60
2018-04-22T07:49:42.025Z,54.50
2018-04-22T07:50:42.027Z,52.60
2018-04-22T07:51:42.031Z,55.10
2018-04-22T07:52:42.029Z,51.40
2018-04-22T07:53:42.028Z,52.80
2018-04-22T07:54:42.037Z,52.40
2018-04-22T07:55:42.031Z,48.00
2018-04-22T07:56:42.032Z,50.40
2018-04-22T07:57:42.031Z,55.50
2018-04-22T07:58:42.032Z,51.70
2018-04-22T07:59:42.033Z,47.40
2018-04-22T08:00:42.035Z,49.70
2018-04-22T08:01:42.035Z,49.20
2018-04-22T08:02:42.039Z,50.10
2018-04-22T08:03:42.037Z,47.60
2018-04-22T08:04:42.038Z,51.30
2018-04-22T08:05:42.039Z,47.00
2018-04-22T08:06:42.091Z,50.90
2018-04-22T08:07:42.041Z,46.80
2018-04-22T08:08:42.042Z,49.30
2018-04-22T08:09:42.042Z,43.20
2018-04-22T08:10:42.044Z,48.80
2018-04-22T08:11:42.049Z,53.30
2018-04-22T08:12:42.048Z,49.60
2018-04-22T08:13:42.047Z,52.50
2018-04-22T08:14:42.049Z,50.50
2018-04-22T08:15:42.053Z,46.30
2018-04-22T08:16:42.056Z,48.80
2018-04-22T08:17:42.059Z,46.50
2018-04-22T08:18:42.055Z,55.40
2018-04-22T08:19:42.056Z,48.20
2018-04-22T08:20:42.058Z,50.80
2018-04-22T08:21:42.061Z,46.60
2018-04-22T08:22:42.060Z,51.60
2018-04-22T08:23:42.072Z,47.60
2018-04-22T08:24:42.067Z,44.20
2018-04-22T08:25:42.068Z,47.10
2018-04-22T08:26:42.067Z,45.70
2018-04-22T08:27:42.069Z,48.00
2018-04-22T08:28:42.075Z,46.00
2018-04-22T08:29:42.072Z,46.50
2018-04-22T08:30:42.075Z,48.00
2018-04-22T08:31:42.077Z,45.50
2018-04-22T08:32:42.077Z,44.30
2018-04-22T08:33:42.079Z,44.70
2018-04-22T08:34:42.081Z,47.90
2018-04-22T08:35:42.085Z,49.90
2018-04-22T08:36:42.085Z,45.90
2018-04-22T08:37:42.087Z,40.20
2018-04-22T08:38:42.092Z,39.90
2018-04-22T08:39:42.092Z,43.00
2018-04-22T08:40:42.093Z,43.90
2018-04-22T08:41:42.095Z,40.70
2018-04-22T08:42:42.099Z,43.20
2018-04-22T08:43:42.101Z,42.70
2018-04-22T08:44:42.118Z,43.80
2018-04-22T08:45:42.277Z,43.90
2018-04-22T08:46:42.107Z,40.60
2018-04-22T08:47:42.109Z,40.40
2018-04-22T08:48:42.116Z,39.80
2018-04-22T08:49:42.375Z,39.30
2018-04-22T08:50:42.154Z,40.10
2018-04-22T08:51:42.119Z,40.00
2018-04-22T08:52:42.122Z,38.20
2018-04-22T08:53:42.122Z,36.40
2018-04-22T08:54:42.198Z,38.10
2018-04-22T08:55:42.130Z,38.40
2018-04-22T08:56:42.164Z,42.70
2018-04-22T08:57:42.133Z,40.30
2018-04-22T08:58:42.135Z,40.40
2018-04-22T08:59:42.140Z,41.50
2018-04-22T09:00:42.142Z,40.80
2018-04-22T09:01:42.144Z,36.30
2018-04-22T09:02:42.146Z,37.10
2018-04-22T09:03:42.150Z,38.10
2018-04-22T09:04:42.153Z,37.60
2018-04-22T09:05:42.161Z,37.30
2018-04-22T09:06:42.159Z,35.70
2018-04-22T09:07:42.165Z,38.10
2018-04-22T09:08:43.441Z,35.50
2018-04-22T09:09:42.170Z,37.30
2018-04-22T09:10:42.177Z,35.40
2018-04-22T09:11:44.831Z,35.70
2018-04-22T09:12:42.185Z,32.20
2018-04-22T09:13:42.189Z,36.90
2018-04-22T09:14:42.422Z,35.10
2018-04-22T09:15:42.194Z,34.00
2018-04-22T09:16:42.231Z,35.20
2018-04-22T09:17:42.197Z,34.70
2018-04-22T09:18:42.201Z,36.00
2018-04-22T09:19:42.205Z,34.30
2018-04-22T09:20:42.783Z,35.30
2018-04-22T09:21:42.214Z,33.80
2018-04-22T09:22:42.217Z,30.60
2018-04-22T09:23:42.222Z,31.30
2018-04-22T09:24:42.240Z,32.50
2018-04-22T09:25:42.228Z,34.20
2018-04-22T09:26:42.231Z,29.40
2018-04-22T09:27:42.237Z,37.90
2018-04-22T09:28:42.240Z,34.30
2018-04-22T09:29:42.243Z,30.00
2018-04-22T09:30:42.251Z,31.40
2018-04-22T09:31:42.258Z,32.60
2018-04-22T09:32:42.256Z,28.50
2018-04-22T09:33:42.289Z,27.40
2018-04-22T09:34:42.267Z,29.90
2018-04-22T09:35:42.269Z,31.60
2018-04-22T09:36:42.276Z,29.30
2018-04-22T09:37:42.822Z,26.20
2018-04-22T09:38:42.281Z,26.60
2018-04-22T09:39:42.293Z,31.30
2018-04-22T09:40:42.289Z,24.90
2018-04-22T09:41:42.296Z,24.70
2018-04-22T09:42:42.313Z,29.30
2018-04-22T09:43:42.312Z,26.40
2018-04-22T09:44:42.308Z,27.20
2018-04-22T09:45:42.313Z,29.50
2018-04-22T09:46:42.314Z,27.30
2018-04-22T09:47:42.319Z,26.10
2018-04-22T09:48:42.322Z,27.80
2018-04-22T09:49:42.329Z,24.00
2018-04-22T09:50:42.332Z,25.80
2018-04-22T09:51:43.185Z,26.10
2018-04-22T09:52:42.341Z,24.50
2018-04-22T09:53:42.349Z,24.60
2018-04-22T09:54:42.352Z,24.40
2018-04-22T09:55:42.382Z,21.30
2018-04-22T09:56:42.362Z,22.00
2018-04-22T09:57:42.364Z,23.80
2018-04-22T09:58:42.371Z,24.40
2018-04-22T09:59:42.376Z,24.70
2018-04-22T10:00:42.384Z,23.70
2018-04-22T10:01:42.385Z,23.90
2018-04-22T10:02:42.389Z,24.30
2018-04-22T10:03:42.394Z,22.80
2018-04-22T10:04:42.400Z,20.80
2018-04-22T10:05:42.405Z,22.60
2018-04-22T10:06:42.408Z,22.80
2018-04-22T10:07:42.417Z,22.00
2018-04-22T10:08:42.422Z,22.30
2018-04-22T10:09:42.430Z,27.30
2018-04-22T10:10:42.432Z,23.30
2018-04-22T10:11:42.435Z,23.90
2018-04-22T10:12:42.442Z,23.10
2018-04-22T10:13:42.448Z,23.80
2018-04-22T10:14:42.450Z,22.10
2018-04-22T10:15:42.490Z,23.10
2018-04-22T10:16:42.463Z,24.40
2018-04-22T10:17:42.477Z,21.30
2018-04-22T10:18:42.472Z,23.70
2018-04-22T10:19:42.483Z,21.10
2018-04-22T10:20:42.490Z,24.40
2018-04-22T10:21:42.486Z,22.60
2018-04-22T10:22:42.491Z,22.90
2018-04-22T10:23:42.518Z,23.00
2018-04-22T10:24:42.505Z,21.90
2018-04-22T10:25:42.513Z,22.00
2018-04-22T10:26:42.516Z,20.20
2018-04-22T10:27:42.564Z,24.70
2018-04-22T10:28:42.570Z,28.20
2018-04-22T10:29:42.531Z,19.60
2018-04-22T10:30:42.539Z,21.80
2018-04-22T10:31:42.548Z,22.30
2018-04-22T10:32:42.572Z,22.20
2018-04-22T10:33:42.559Z,21.10
2018-04-22T10:34:42.613Z,23.90
2018-04-22T10:35:42.566Z,17.90
2018-04-22T10:36:42.574Z,18.90
2018-04-22T10:37:42.725Z,17.80
2018-04-22T10:38:43.022Z,18.60
2018-04-22T10:39:42.613Z,14.40
2018-04-22T10:40:42.595Z,15.70
2018-04-22T10:41:42.617Z,17.00
2018-04-22T10:42:42.607Z,22.60
2018-04-22T10:43:42.612Z,19.50
2018-04-22T10:44:42.619Z,19.40
2018-04-22T10:45:42.625Z,19.50
2018-04-22T10:46:42.673Z,21.80
2018-04-22T10:47:42.634Z,18.30
2018-04-22T10:48:42.642Z,20.00
2018-04-22T10:49:42.647Z,16.80
2018-04-22T10:50:42.657Z,18.90
2018-04-22T10:51:42.665Z,15.70
2018-04-22T10:52:42.668Z,16.90
2018-04-22T10:53:42.674Z,21.10
2018-04-22T10:54:42.681Z,17.90
2018-04-22T10:55:42.687Z,17.50
2018-04-22T10:56:42.693Z,17.30
2018-04-22T10:57:42.707Z,18.10
2018-04-22T10:58:42.712Z,16.10
2018-04-22T10:59:42.714Z,14.70
2018-04-22T11:00:42.717Z,13.10
2018-04-22T11:01:42.723Z,14.00
2018-04-22T11:02:42.730Z,11.60
2018-04-22T11:03:42.738Z,15.10
2018-04-22T11:04:42.743Z,12.90
2018-04-22T11:05:42.748Z,12.90
2018-04-22T11:06:42.756Z,11.00
2018-04-22T11:07:42.761Z,14.90
2018-04-22T11:08:42.771Z,13.80
2018-04-22T11:09:42.773Z,15.30
2018-04-22T11:10:42.778Z,14.00
2018-04-22T11:11:42.796Z,10.00
2018-04-22T11:12:42.790Z,14.10
2018-04-22T11:13:42.799Z,15.00
2018-04-22T11:14:42.822Z,13.50
2018-04-22T11:15:42.809Z,12.80
2018-04-22T11:16:42.817Z,11.30
2018-04-22T11:17:42.822Z,12.30
2018-04-22T11:18:42.827Z,13.60
2018-04-22T11:19:42.833Z,16.40
2018-04-22T11:20:42.842Z,13.00
2018-04-22T11:21:42.846Z,15.40
2018-04-22T11:22:42.852Z,14.30
2018-04-22T11:23:42.860Z,16.00
2018-04-22T11:24:42.867Z,10.20
2018-04-22T11:25:42.875Z,11.50
2018-04-22T11:26:42.879Z,13.00
2018-04-22T11:27:42.885Z,13.30
2018-04-22T11:28:42.899Z,12.00
2018-04-22T11:29:42.895Z,11.90
2018-04-22T11:30:42.908Z,11.50
2018-04-22T11:31:42.913Z,9.40
2018-04-22T11:32:42.919Z,14.40
2018-04-22T11:33:42.929Z,14.20
2018-04-22T11:34:42.930Z,14.10
2018-04-22T11:35:42.937Z,15.30
2018-04-22T11:36:42.941Z,14.70
2018-04-22T11:37:42.951Z,15.00
2018-04-22T11:38:42.956Z,13.70
2018-04-22T11:39:42.964Z,14.30
2018-04-22T11:40:42.975Z,14.70
2018-04-22T11:41:42.974Z,13.50
2018-04-22T11:42:42.981Z,14.40
2018-04-22T11:43:42.986Z,20.00
2018-04-22T11:44:42.994Z,12.40
2018-04-22T11:45:43.003Z,10.10
2018-04-22T11:46:43.008Z,11.30
2018-04-22T11:47:43.026Z,14.50
2018-04-22T11:48:43.020Z,12.10
2018-04-22T11:49:43.026Z,10.10
2018-04-22T11:50:43.052Z,14.40
2018-04-22T11:51:43.040Z,11.30
2018-04-22T11:52:43.046Z,10.00
2018-04-22T11:53:43.054Z,8.50
2018-04-22T11:54:43.057Z,9.60
2018-04-22T11:55:43.093Z,12.20
2018-04-22T11:56:43.075Z,12.70
2018-04-22T11:57:43.078Z,12.60
2018-04-22T11:58:43.085Z,13.30
2018-04-22T11:59:43.091Z,11.30
2018-04-22T12:00:43.105Z,11.80
2018-04-22T12:01:43.155Z,11.30
2018-04-22T12:02:43.114Z,11.60
2018-04-22T12:03:43.117Z,14.00
2018-04-22T12:04:43.126Z,13.90
2018-04-22T12:05:43.132Z,11.70
2018-04-22T12:06:43.142Z,17.20
2018-04-22T12:07:43.145Z,14.40
2018-04-22T12:08:43.153Z,10.70
2018-04-22T12:09:43.159Z,11.30
2018-04-22T12:10:43.164Z,15.60
2018-04-22T12:11:43.174Z,15.20
2018-04-22T12:12:43.180Z,14.80
2018-04-22T12:13:43.189Z,12.30
2018-04-22T12:14:43.214Z,9.80
2018-04-22T12:15:43.201Z,11.10
2018-04-22T12:16:43.214Z,10.50
2018-04-22T12:17:43.215Z,10.00
2018-04-22T12:18:43.221Z,12.20
2018-04-22T12:19:43.231Z,10.60
2018-04-22T12:20:43.389Z,12.40
2018-04-22T12:21:43.285Z,9.20
2018-04-22T12:22:43.248Z,11.30
2018-04-22T12:23:43.256Z,9.10
2018-04-22T12:24:43.273Z,13.80
2018-04-22T12:25:43.371Z,8.60
2018-04-22T12:26:43.281Z,15.60
2018-04-22T12:27:43.292Z,14.60
2018-04-22T12:28:43.295Z,11.60
2018-04-22T12:29:43.302Z,10.90
2018-04-22T12:30:43.313Z,12.10
2018-04-22T12:31:43.317Z,11.80
2018-04-22T12:32:43.322Z,13.90
2018-04-22T12:33:43.333Z,15.40
2018-04-22T12:34:43.343Z,17.40
2018-04-22T12:35:43.348Z,15.30
2018-04-22T12:36:43.357Z,10.80
2018-04-22T12:37:43.356Z,11.50
2018-04-22T12:38:43.369Z,13.70
2018-04-22T12:39:43.370Z,12.30
2018-04-22T12:40:43.377Z,14.10
2018-04-22T12:41:43.384Z,15.40
2018-04-22T12:42:43.389Z,18.30
2018-04-22T12:43:43.396Z,12.50
2018-04-22T12:44:43.405Z,10.00
2018-04-22T12:45:43.411Z,11.90
2018-04-22T12:46:43.427Z,11.40
2018-04-22T12:47:43.437Z,10.30
2018-04-22T12:48:43.433Z,10.70
2018-04-22T12:49:43.438Z,10.20
2018-04-22T12:50:43.443Z,13.70
2018-04-22T12:51:43.450Z,10.60